Time;durP1;ratioP1;P1;durP2;ratioP2;P2;SDS_P1;SDS_P2;PMS_P1;PMS_P2;Temp;Humidity;BMP_temperature;BMP_pressure;BME280_temperature;BME280_humidity;BME280_pressure;Samples;Min_cycle;Max_cycle;Signal;HPM_P1;HPM_P2
2023/11/13 00:01:58;;;;;;;5.78;4.20;;;;;;;;;;4975732;28;20046;-77
2023/11/13 00:04:23;;;;;;;4.95;3.67;;;;;;;;;;4985313;28;20484;-77
2023/11/13 00:06:49;;;;;;;6.17;4.13;;;;;;;;;;4982131;28;20043;-75
2023/11/13 00:09:14;;;;;;;5.75;3.97;;;;;;;;;;4965926;28;20815;-77
2023/11/13 00:11:39;;;;;;;5.47;3.90;;;;;;;;;;4972328;28;20060;-77
2023/11/13 00:14:06;;;;;;;4.95;3.72;;;;;;;;;;4976230;28;20574;-77
2023/11/13 00:16:32;;;;;;;4.68;3.30;;;;;;;;;;4985617;28;20050;-77
2023/11/13 00:18:58;;;;;;;6.32;4.22;;;;;;;;;;4970909;28;20116;-77
2023/11/13 00:21:23;;;;;;;5.07;3.40;;;;;;;;;;4983105;28;20417;-78
2023/11/13 00:23:49;;;;;;;5.55;3.72;;;;;;;;;;4976572;28;20605;-78
2023/11/13 00:26:14;;;;;;;5.43;3.67;;;;;;;;;;4977901;28;20038;-77
2023/11/13 00:28:39;;;;;;;4.82;3.53;;;;;;;;;;4985583;28;20576;-78
2023/11/13 00:31:05;;;;;;;5.57;3.80;;;;;;;;;;4988883;28;20035;-77
2023/11/13 00:33:30;;;;;;;4.72;3.38;;;;;;;;;;4975120;28;20027;-78
2023/11/13 00:35:55;;;;;;;5.25;4.00;;;;;;;;;;4980555;28;20034;-77
2023/11/13 00:38:21;;;;;;;6.00;4.13;;;;;;;;;;4980322;28;20065;-77
2023/11/13 00:40:46;;;;;;;5.90;3.92;;;;;;;;;;4986088;28;20042;-77
2023/11/13 00:43:12;;;;;;;4.47;3.58;;;;;;;;;;4962034;28;20181;-77
2023/11/13 00:45:38;;;;;;;5.43;3.67;;;;;;;;;;4983847;28;20039;-78
2023/11/13 00:48:03;;;;;;;5.82;3.90;;;;;;;;;;4989087;28;20418;-78
2023/11/13 00:50:28;;;;;;;5.07;3.47;;;;;;;;;;4980231;28;20050;-78
2023/11/13 00:52:54;;;;;;;5.03;3.70;;;;;;;;;;4986169;28;20038;-77
2023/11/13 00:55:19;;;;;;;4.90;3.65;;;;;;;;;;4974480;28;20039;-77
2023/11/13 00:57:45;;;;;;;5.75;4.20;;;;;;;;;;4989788;28;20130;-77
2023/11/13 01:00:11;;;;;;;5.45;4.05;;;;;;;;;;4991596;28;20034;-78
2023/11/13 01:02:37;;;;;;;5.05;3.65;;;;;;;;;;4973966;28;20555;-78
2023/11/13 01:05:03;;;;;;;5.50;3.88;;;;;;;;;;4975510;28;20034;-77
2023/11/13 01:07:28;;;;;;;5.65;3.80;;;;;;;;;;4986699;28;20053;-77
2023/11/13 01:09:53;;;;;;;4.65;3.70;;;;;;;;;;4988794;28;20504;-78
2023/11/13 01:12:20;;;;;;;5.00;3.78;;;;;;;;;;4991090;28;20054;-78
2023/11/13 01:14:45;;;;;;;4.63;3.53;;;;;;;;;;4989454;28;20089;-77
2023/11/13 01:17:11;;;;;;;5.32;3.97;;;;;;;;;;4975787;28;20043;-76
2023/11/13 01:19:36;;;;;;;6.03;3.47;;;;;;;;;;4984809;28;20042;-76
2023/11/13 01:22:02;;;;;;;4.50;3.50;;;;;;;;;;4983274;28;20122;-76
2023/11/13 01:24:27;;;;;;;5.05;3.45;;;;;;;;;;4990406;28;20443;-76
2023/11/13 01:26:53;;;;;;;5.43;3.83;;;;;;;;;;4975441;28;20047;-76
2023/11/13 01:29:18;;;;;;;5.60;3.55;;;;;;;;;;4988772;28;20542;-78
2023/11/13 01:31:44;;;;;;;5.82;3.92;;;;;;;;;;4989318;28;20220;-76
2023/11/13 01:34:12;;;;;;;5.05;3.40;;;;;;;;;;4981465;28;20047;-75
2023/11/13 01:36:38;;;;;;;4.78;3.47;;;;;;;;;;4983143;28;20057;-75
2023/11/13 01:39:03;;;;;;;4.80;3.63;;;;;;;;;;4982820;28;20495;-76
2023/11/13 01:41:32;;;;;;;5.13;3.72;;;;;;;;;;4975998;28;20054;-77
2023/11/13 01:43:58;;;;;;;6.00;3.60;;;;;;;;;;4985874;28;20034;-76
2023/11/13 01:46:23;;;;;;;4.50;3.20;;;;;;;;;;4982737;28;20057;-76
2023/11/13 01:48:53;;;;;;;4.17;3.27;;;;;;;;;;4984456;28;20330;-76
2023/11/13 01:51:18;;;;;;;5.38;3.72;;;;;;;;;;4985787;28;20294;-76
2023/11/13 01:53:43;;;;;;;4.80;3.50;;;;;;;;;;4984212;28;20475;-77
2023/11/13 01:56:09;;;;;;;4.83;3.43;;;;;;;;;;4985761;28;20073;-76
2023/11/13 01:58:35;;;;;;;5.03;3.58;;;;;;;;;;4986084;28;20718;-77
2023/11/13 02:01:00;;;;;;;5.40;3.72;;;;;;;;;;4986233;28;20651;-77
2023/11/13 02:03:25;;;;;;;5.57;3.42;;;;;;;;;;4974634;28;20046;-77
2023/11/13 02:05:51;;;;;;;4.25;3.13;;;;;;;;;;4985321;28;20547;-77
2023/11/13 02:08:19;;;;;;;5.10;3.60;;;;;;;;;;4978949;28;20049;-77
2023/11/13 02:10:44;;;;;;;5.07;3.42;;;;;;;;;;4979512;28;20121;-77
2023/11/13 02:13:11;;;;;;;4.70;3.25;;;;;;;;;;4981190;28;20770;-77
2023/11/13 02:15:37;;;;;;;4.78;3.67;;;;;;;;;;4986174;28;20039;-77
2023/11/13 02:18:02;;;;;;;5.10;3.63;;;;;;;;;;4972691;28;20039;-76
2023/11/13 02:20:29;;;;;;;4.68;3.53;;;;;;;;;;4980721;28;20046;-77
2023/11/13 02:22:54;;;;;;;5.35;3.78;;;;;;;;;;4976704;28;20051;-76
2023/11/13 02:25:23;;;;;;;5.25;3.60;;;;;;;;;;4987604;28;20043;-76
2023/11/13 02:27:53;;;;;;;4.55;3.25;;;;;;;;;;4971829;28;20041;-77
2023/11/13 02:30:18;;;;;;;4.78;3.63;;;;;;;;;;4975334;28;20746;-76
2023/11/13 02:32:44;;;;;;;4.60;3.30;;;;;;;;;;4985821;28;20039;-75
2023/11/13 02:35:10;;;;;;;5.68;3.85;;;;;;;;;;4974746;28;20550;-77
2023/11/13 02:37:35;;;;;;;5.07;3.50;;;;;;;;;;4973215;28;20046;-77
2023/11/13 02:40:00;;;;;;;4.57;3.20;;;;;;;;;;4976670;28;20034;-77
2023/11/13 02:42:26;;;;;;;4.30;3.30;;;;;;;;;;4980861;28;20320;-77
2023/11/13 02:44:51;;;;;;;4.75;3.35;;;;;;;;;;4981294;28;20034;-77
2023/11/13 02:47:17;;;;;;;5.93;3.83;;;;;;;;;;4986362;28;20088;-77
2023/11/13 02:49:42;;;;;;;5.03;3.55;;;;;;;;;;4985302;28;20030;-77
2023/11/13 02:52:07;;;;;;;4.50;3.40;;;;;;;;;;4988940;28;20112;-77
2023/11/13 02:54:33;;;;;;;4.63;3.60;;;;;;;;;;4982460;28;20046;-77
2023/11/13 02:56:58;;;;;;;4.70;3.58;;;;;;;;;;4984060;28;20840;-77
2023/11/13 02:59:23;;;;;;;4.80;3.42;;;;;;;;;;4979349;28;20117;-77
2023/11/13 03:01:49;;;;;;;5.47;3.63;;;;;;;;;;4967833;28;20070;-77
2023/11/13 03:04:14;;;;;;;4.40;3.10;;;;;;;;;;4982781;28;20562;-77
2023/11/13 03:06:40;;;;;;;4.78;3.55;;;;;;;;;;4978636;28;20417;-77
2023/11/13 03:09:06;;;;;;;5.22;3.40;;;;;;;;;;4983166;28;20128;-76
2023/11/13 03:11:31;;;;;;;5.40;3.70;;;;;;;;;;4985265;28;20042;-77
2023/11/13 03:13:57;;;;;;;4.70;3.40;;;;;;;;;;4976805;28;20077;-76
2023/11/13 03:16:22;;;;;;;5.00;3.35;;;;;;;;;;4980920;28;20043;-77
2023/11/13 03:18:47;;;;;;;4.93;3.33;;;;;;;;;;4983051;28;20104;-76
2023/11/13 03:21:13;;;;;;;4.97;3.33;;;;;;;;;;4974231;28;20053;-76
2023/11/13 03:23:38;;;;;;;4.80;3.80;;;;;;;;;;4969349;28;20045;-77
2023/11/13 03:26:03;;;;;;;5.28;3.80;;;;;;;;;;4984772;28;20064;-77
2023/11/13 03:28:29;;;;;;;4.43;3.45;;;;;;;;;;4982989;28;20130;-78
2023/11/13 03:30:54;;;;;;;4.47;3.28;;;;;;;;;;4980564;28;20053;-76
2023/11/13 03:33:20;;;;;;;4.68;3.50;;;;;;;;;;4988549;28;20054;-76
2023/11/13 03:35:46;;;;;;;4.50;3.53;;;;;;;;;;4998712;28;20035;-77
2023/11/13 03:38:11;;;;;;;4.82;3.50;;;;;;;;;;4972619;28;20520;-77
2023/11/13 03:40:36;;;;;;;4.68;3.25;;;;;;;;;;4954489;28;20039;-77
2023/11/13 03:43:02;;;;;;;5.05;3.50;;;;;;;;;;4963404;28;20514;-77
2023/11/13 03:45:27;;;;;;;4.53;3.42;;;;;;;;;;4954122;28;20200;-77
2023/11/13 03:47:52;;;;;;;4.93;3.30;;;;;;;;;;4969128;28;20381;-77
2023/11/13 03:50:17;;;;;;;4.72;3.40;;;;;;;;;;4971480;28;20375;-77
2023/11/13 03:52:43;;;;;;;4.57;3.40;;;;;;;;;;4975743;28;20523;-77
2023/11/13 03:55:08;;;;;;;4.80;3.60;;;;;;;;;;4969816;28;20121;-77
2023/11/13 03:57:33;;;;;;;5.63;3.50;;;;;;;;;;4970777;28;20070;-76
2023/11/13 03:59:59;;;;;;;5.35;3.55;;;;;;;;;;4971629;28;20053;-77
2023/11/13 04:02:24;;;;;;;5.05;3.30;;;;;;;;;;4979183;28;20050;-77
2023/11/13 04:04:49;;;;;;;5.60;3.92;;;;;;;;;;4969827;28;20051;-77
2023/11/13 04:07:19;;;;;;;4.93;3.67;;;;;;;;;;4972889;28;20519;-77
2023/11/13 04:09:45;;;;;;;4.43;3.10;;;;;;;;;;4984311;28;20113;-77
2023/11/13 04:12:10;;;;;;;4.50;3.58;;;;;;;;;;4987896;28;20133;-76
2023/11/13 04:14:36;;;;;;;4.53;3.53;;;;;;;;;;4982745;28;20066;-77
2023/11/13 04:17:01;;;;;;;4.53;3.50;;;;;;;;;;4973286;28;20117;-77
2023/11/13 04:19:27;;;;;;;5.25;3.83;;;;;;;;;;4983984;28;20030;-77
2023/11/13 04:21:53;;;;;;;5.18;3.67;;;;;;;;;;4982800;28;20050;-77
2023/11/13 04:24:18;;;;;;;4.67;3.60;;;;;;;;;;4977696;28;20519;-77
2023/11/13 04:26:43;;;;;;;5.00;3.60;;;;;;;;;;4974753;28;20286;-77
2023/11/13 04:29:08;;;;;;;4.70;3.38;;;;;;;;;;4984018;28;20620;-77
2023/11/13 04:31:34;;;;;;;5.03;3.43;;;;;;;;;;4985859;28;20038;-77
2023/11/13 04:33:59;;;;;;;4.53;3.55;;;;;;;;;;4985259;28;20833;-77
2023/11/13 04:36:25;;;;;;;5.15;3.55;;;;;;;;;;4986086;28;20046;-77
2023/11/13 04:38:50;;;;;;;3.67;3.13;;;;;;;;;;4988759;28;20046;-77
2023/11/13 04:41:16;;;;;;;4.18;3.13;;;;;;;;;;4980816;28;20754;-77
2023/11/13 04:43:42;;;;;;;5.53;3.90;;;;;;;;;;4982775;28;20512;-77
2023/11/13 04:46:08;;;;;;;4.57;3.70;;;;;;;;;;4970425;28;20060;-77
2023/11/13 04:48:33;;;;;;;5.13;3.55;;;;;;;;;;4989901;28;20504;-77
2023/11/13 04:50:59;;;;;;;4.75;3.58;;;;;;;;;;4986046;28;20050;-77
2023/11/13 04:53:24;;;;;;;4.72;3.47;;;;;;;;;;4973127;28;20035;-77
2023/11/13 04:55:50;;;;;;;4.50;3.40;;;;;;;;;;4983604;28;20054;-77
2023/11/13 04:58:15;;;;;;;5.20;3.83;;;;;;;;;;4977787;28;20289;-77
2023/11/13 05:00:41;;;;;;;5.05;3.50;;;;;;;;;;4984959;28;20526;-77
2023/11/13 05:03:06;;;;;;;4.97;3.80;;;;;;;;;;4984676;28;20051;-77
2023/11/13 05:05:36;;;;;;;5.63;3.90;;;;;;;;;;4987532;28;20044;-81
2023/11/13 05:08:02;;;;;;;5.05;3.60;;;;;;;;;;4984398;28;20042;-78
2023/11/13 05:10:27;;;;;;;4.63;3.50;;;;;;;;;;4972835;28;20514;-78
2023/11/13 05:12:53;;;;;;;4.63;3.33;;;;;;;;;;4970221;28;20049;-76
2023/11/13 05:15:18;;;;;;;5.40;4.10;;;;;;;;;;4978958;28;20034;-78
2023/11/13 05:17:43;;;;;;;4.80;3.87;;;;;;;;;;4987347;28;20026;-77
2023/11/13 05:20:08;;;;;;;5.88;4.03;;;;;;;;;;4981912;28;20748;-78
2023/11/13 05:22:34;;;;;;;4.93;3.60;;;;;;;;;;4989129;28;20034;-79
2023/11/13 05:24:59;;;;;;;6.85;4.18;;;;;;;;;;4986453;28;20105;-75
2023/11/13 05:27:25;;;;;;;4.97;3.90;;;;;;;;;;4979970;28;20113;-75
2023/11/13 05:29:52;;;;;;;6.07;4.03;;;;;;;;;;4987409;28;20026;-78
2023/11/13 05:32:17;;;;;;;6.55;3.40;;;;;;;;;;4982120;28;20030;-74
2023/11/13 05:34:42;;;;;;;5.25;3.80;;;;;;;;;;4995581;28;20018;-74
2023/11/13 05:37:08;;;;;;;4.63;3.58;;;;;;;;;;4978302;28;20399;-76
2023/11/13 05:39:33;;;;;;;5.35;3.70;;;;;;;;;;4987709;28;20022;-76
2023/11/13 05:41:59;;;;;;;4.95;3.75;;;;;;;;;;4979252;28;20038;-75
2023/11/13 05:44:24;;;;;;;5.57;3.77;;;;;;;;;;4986327;28;20053;-75
2023/11/13 05:46:49;;;;;;;4.85;3.45;;;;;;;;;;4985932;28;20310;-75
2023/11/13 05:49:14;;;;;;;5.90;3.50;;;;;;;;;;5006799;28;20022;-74
2023/11/13 05:51:40;;;;;;;6.05;3.67;;;;;;;;;;4983572;28;20045;-75
2023/11/13 05:54:05;;;;;;;4.93;3.55;;;;;;;;;;4992066;28;20019;-77
2023/11/13 05:56:31;;;;;;;5.20;3.70;;;;;;;;;;4969891;28;20552;-78
2023/11/13 05:58:57;;;;;;;4.55;3.70;;;;;;;;;;4991910;28;20029;-76
2023/11/13 06:01:22;;;;;;;5.47;3.60;;;;;;;;;;4987172;28;20030;-80
2023/11/13 06:03:48;;;;;;;5.38;4.00;;;;;;;;;;4992153;28;20029;-82
2023/11/13 06:06:14;;;;;;;5.10;3.60;;;;;;;;;;4980917;28;20023;-84
2023/11/13 06:08:45;;;;;;;4.50;3.67;;;;;;;;;;4989893;28;20026;-84
2023/11/13 06:11:11;;;;;;;4.50;3.90;;;;;;;;;;4991362;28;20046;-82
2023/11/13 06:13:37;;;;;;;5.05;4.10;;;;;;;;;;4990566;28;20043;-75
2023/11/13 06:16:02;;;;;;;5.43;4.05;;;;;;;;;;4987087;28;21352;-76
2023/11/13 06:18:28;;;;;;;5.10;3.70;;;;;;;;;;4986178;28;20047;-78
2023/11/13 06:20:53;;;;;;;4.65;3.60;;;;;;;;;;4984471;28;20678;-77
2023/11/13 06:23:18;;;;;;;4.40;3.53;;;;;;;;;;4981920;28;20120;-82
2023/11/13 06:25:44;;;;;;;5.95;3.70;;;;;;;;;;4991411;28;20074;-81
2023/11/13 06:28:09;;;;;;;5.17;3.70;;;;;;;;;;4992820;28;20066;-80
2023/11/13 06:30:34;;;;;;;5.10;3.80;;;;;;;;;;4990000;28;20670;-82
2023/11/13 06:33:02;;;;;;;4.70;3.67;;;;;;;;;;5005217;28;20307;-82
2023/11/13 06:35:28;;;;;;;6.93;3.78;;;;;;;;;;4992763;28;20068;-80
2023/11/13 06:37:53;;;;;;;5.05;3.92;;;;;;;;;;4992745;28;20050;-80
2023/11/13 06:40:18;;;;;;;7.07;4.38;;;;;;;;;;4994465;28;20042;-82
2023/11/13 06:42:45;;;;;;;8.93;4.72;;;;;;;;;;4973335;28;20102;-78
2023/11/13 06:45:17;;;;;;;12.50;4.20;;;;;;;;;;4987541;28;20211;-78
2023/11/13 06:47:46;;;;;;;8.68;4.10;;;;;;;;;;4983753;28;20039;-77
2023/11/13 06:50:11;;;;;;;9.52;4.15;;;;;;;;;;4979191;28;20034;-79
2023/11/13 06:52:36;;;;;;;8.75;4.28;;;;;;;;;;4988467;28;20085;-81
2023/11/13 06:55:02;;;;;;;13.15;5.00;;;;;;;;;;4990444;28;20037;-81
2023/11/13 06:57:27;;;;;;;9.77;4.35;;;;;;;;;;4979515;28;20041;-81
2023/11/13 06:59:55;;;;;;;12.85;4.35;;;;;;;;;;4986899;28;20050;-82
2023/11/13 07:02:21;;;;;;;11.40;5.05;;;;;;;;;;4983993;28;20038;-81
2023/11/13 07:04:47;;;;;;;14.63;5.32;;;;;;;;;;4979261;28;20031;-82
2023/11/13 07:07:12;;;;;;;10.50;4.88;;;;;;;;;;4980240;28;20065;-82
2023/11/13 07:09:38;;;;;;;12.57;4.68;;;;;;;;;;4976989;28;20034;-79
2023/11/13 07:12:04;;;;;;;12.32;5.10;;;;;;;;;;4972050;28;20088;-79
2023/11/13 07:14:29;;;;;;;9.73;4.72;;;;;;;;;;4975353;28;20049;-78
2023/11/13 07:16:55;;;;;;;11.27;4.90;;;;;;;;;;4971792;28;20038;-78
2023/11/13 07:19:20;;;;;;;11.88;4.70;;;;;;;;;;4978014;28;20042;-78
2023/11/13 07:21:45;;;;;;;8.03;4.20;;;;;;;;;;4980415;28;20042;-79
2023/11/13 07:24:12;;;;;;;9.35;4.90;;;;;;;;;;4973897;28;20289;-79
2023/11/13 07:26:37;;;;;;;11.60;4.97;;;;;;;;;;4987111;28;20502;-82
2023/11/13 07:29:05;;;;;;;11.13;4.88;;;;;;;;;;4974643;28;20041;-81
2023/11/13 07:31:30;;;;;;;9.82;4.57;;;;;;;;;;4991843;28;20134;-80
2023/11/13 07:33:55;;;;;;;11.35;5.38;;;;;;;;;;4983647;28;20066;-80
2023/11/13 07:36:21;;;;;;;13.02;5.40;;;;;;;;;;4985343;28;20058;-80
2023/11/13 07:38:46;;;;;;;10.52;4.50;;;;;;;;;;4977773;28;20034;-81
2023/11/13 07:41:12;;;;;;;10.80;5.00;;;;;;;;;;5002713;28;20030;-80
2023/11/13 07:43:41;;;;;;;12.63;5.28;;;;;;;;;;4992269;28;20108;-82
2023/11/13 07:46:09;;;;;;;15.27;5.30;;;;;;;;;;4987597;28;20056;-81
2023/11/13 07:48:35;;;;;;;10.68;5.03;;;;;;;;;;4990676;28;20046;-80
2023/11/13 07:51:02;;;;;;;12.82;5.22;;;;;;;;;;5004295;28;20041;-79
2023/11/13 07:53:27;;;;;;;11.98;6.03;;;;;;;;;;4979098;28;20422;-80
2023/11/13 07:55:54;;;;;;;14.90;5.70;;;;;;;;;;4981145;28;20042;-83
2023/11/13 07:58:19;;;;;;;10.95;4.95;;;;;;;;;;4986595;28;20039;-81
2023/11/13 08:00:46;;;;;;;13.47;5.40;;;;;;;;;;4978991;28;20029;-81
2023/11/13 08:03:15;;;;;;;11.55;4.72;;;;;;;;;;4971597;28;20301;-81
2023/11/13 08:05:41;;;;;;;9.75;5.35;;;;;;;;;;4971519;28;20026;-81
2023/11/13 08:08:06;;;;;;;10.80;5.23;;;;;;;;;;4990244;28;20137;-80
2023/11/13 08:10:32;;;;;;;10.20;5.27;;;;;;;;;;4987991;28;20277;-81
2023/11/13 08:12:57;;;;;;;10.32;5.88;;;;;;;;;;4968301;28;20286;-80
2023/11/13 08:15:25;;;;;;;11.98;5.03;;;;;;;;;;4988089;28;20041;-81
2023/11/13 08:17:52;;;;;;;10.60;5.20;;;;;;;;;;5000153;28;20223;-81
2023/11/13 08:20:18;;;;;;;10.95;5.47;;;;;;;;;;4989607;28;20038;-80
2023/11/13 08:22:46;;;;;;;12.25;5.40;;;;;;;;;;4987734;28;20043;-81
2023/11/13 08:25:12;;;;;;;9.25;5.00;;;;;;;;;;4987562;28;20042;-81
2023/11/13 08:27:44;;;;;;;12.15;5.38;;;;;;;;;;4988685;28;20035;-81
2023/11/13 08:30:13;;;;;;;10.68;5.25;;;;;;;;;;5003146;28;20065;-84
2023/11/13 08:32:40;;;;;;;9.82;5.07;;;;;;;;;;5000153;23;20050;-59
2023/11/13 08:35:11;;;;;;;11.45;5.43;;;;;;;;;;4975462;28;20065;-59
2023/11/13 08:37:46;;;;;;;10.48;5.35;;;;;;;;;;4981481;28;20046;-60
2023/11/13 08:40:12;;;;;;;10.02;5.10;;;;;;;;;;4974978;28;20050;-57
2023/11/13 08:42:41;;;;;;;8.95;5.07;;;;;;;;;;4963370;28;20050;-58
2023/11/13 08:45:12;;;;;;;10.93;5.43;;;;;;;;;;4965784;28;20042;-57
2023/11/13 08:47:38;;;;;;;9.18;5.07;;;;;;;;;;4984894;28;20286;-57
2023/11/13 08:50:07;;;;;;;9.20;5.22;;;;;;;;;;4969092;28;20109;-56
2023/11/13 08:52:33;;;;;;;10.48;5.30;;;;;;;;;;4976244;28;20043;-57
2023/11/13 08:54:58;;;;;;;10.10;5.43;;;;;;;;;;4961718;28;20206;-59
2023/11/13 08:57:24;;;;;;;10.25;4.78;;;;;;;;;;4965317;28;20130;-57
2023/11/13 08:59:51;;;;;;;9.57;4.68;;;;;;;;;;4970314;28;20472;-57
2023/11/13 09:02:16;;;;;;;8.50;4.95;;;;;;;;;;4968851;28;20055;-57
2023/11/13 09:04:43;;;;;;;7.18;4.63;;;;;;;;;;4988338;28;20054;-59
2023/11/13 09:07:11;;;;;;;9.50;5.43;;;;;;;;;;4983902;28;20140;-59
2023/11/13 09:09:39;;;;;;;9.52;4.68;;;;;;;;;;4974790;28;20022;-57
2023/11/13 09:12:04;;;;;;;9.27;4.90;;;;;;;;;;4980138;28;20059;-57
2023/11/13 09:14:35;;;;;;;10.35;4.85;;;;;;;;;;4972410;28;20042;-58
2023/11/13 09:17:12;;;;;;;9.65;5.03;;;;;;;;;;4973086;28;20038;-57
2023/11/13 09:19:38;;;;;;;7.72;4.53;;;;;;;;;;4989439;28;20017;-57
2023/11/13 09:22:09;;;;;;;9.75;4.72;;;;;;;;;;4974179;28;20030;-57
2023/11/13 09:24:38;;;;;;;8.43;4.78;;;;;;;;;;4974548;28;20097;-57
2023/11/13 09:27:09;;;;;;;6.80;4.82;;;;;;;;;;4975057;28;20058;-57
2023/11/13 09:29:35;;;;;;;8.30;4.80;;;;;;;;;;4974875;28;20050;-57
2023/11/13 09:32:00;;;;;;;8.73;4.97;;;;;;;;;;4994380;28;20053;-58
2023/11/13 09:34:25;;;;;;;9.05;5.13;;;;;;;;;;4972421;28;20133;-57
2023/11/13 09:36:53;;;;;;;10.95;5.30;;;;;;;;;;4980525;28;20117;-58
2023/11/13 09:39:18;;;;;;;8.18;5.20;;;;;;;;;;4983392;28;20191;-58
2023/11/13 09:41:45;;;;;;;7.13;4.50;;;;;;;;;;4981013;28;20169;-57
2023/11/13 09:44:11;;;;;;;8.02;4.88;;;;;;;;;;4965413;28;20493;-58
2023/11/13 09:46:39;;;;;;;9.13;4.80;;;;;;;;;;4975913;28;20046;-57
2023/11/13 09:49:06;;;;;;;8.13;5.15;;;;;;;;;;4975177;28;20504;-58
2023/11/13 09:51:32;;;;;;;7.68;4.70;;;;;;;;;;4967748;28;20034;-57
2023/11/13 09:53:58;;;;;;;8.27;4.88;;;;;;;;;;4961780;28;20576;-60
2023/11/13 09:56:27;;;;;;;8.15;4.82;;;;;;;;;;4977501;28;20031;-57
2023/11/13 09:58:53;;;;;;;8.63;4.70;;;;;;;;;;4969766;28;20088;-58
2023/11/13 10:01:21;;;;;;;7.65;4.72;;;;;;;;;;4991919;28;20031;-56
2023/11/13 10:03:46;;;;;;;9.20;5.03;;;;;;;;;;4967107;28;20536;-57
2023/11/13 10:06:12;;;;;;;8.27;4.75;;;;;;;;;;4975149;28;20101;-57
2023/11/13 10:08:46;;;;;;;8.82;4.93;;;;;;;;;;4976706;28;20066;-59
2023/11/13 10:11:12;;;;;;;7.35;4.63;;;;;;;;;;4986754;28;20035;-59
2023/11/13 10:13:37;;;;;;;9.70;4.68;;;;;;;;;;4975742;28;20093;-58
2023/11/13 10:16:17;;;;;;;9.18;4.85;;;;;;;;;;4969441;28;20119;-58
2023/11/13 10:18:44;;;;;;;6.73;4.57;;;;;;;;;;4974045;28;20583;-57
2023/11/13 10:21:16;;;;;;;6.30;4.40;;;;;;;;;;4955965;28;20337;-60
2023/11/13 10:23:41;;;;;;;6.32;4.68;;;;;;;;;;4978962;28;20109;-58
2023/11/13 10:26:09;;;;;;;6.82;4.40;;;;;;;;;;4980685;28;20042;-57
2023/11/13 10:28:36;;;;;;;7.03;4.30;;;;;;;;;;4978108;28;20104;-58
2023/11/13 10:31:01;;;;;;;6.45;3.97;;;;;;;;;;4981867;28;20089;-59
2023/11/13 10:33:27;;;;;;;7.07;4.43;;;;;;;;;;4980427;28;20038;-57
2023/11/13 10:35:53;;;;;;;6.88;4.35;;;;;;;;;;4971623;28;20049;-57
2023/11/13 10:38:20;;;;;;;7.15;4.32;;;;;;;;;;4982004;28;20035;-57
2023/11/13 10:40:58;;;;;;;7.53;4.30;;;;;;;;;;4958843;28;20049;-55
2023/11/13 10:43:27;;;;;;;7.18;4.57;;;;;;;;;;4969204;28;20057;-56
2023/11/13 10:45:53;;;;;;;6.80;4.15;;;;;;;;;;4966817;28;20042;-56
2023/11/13 10:48:34;;;;;;;6.22;4.03;;;;;;;;;;4974521;28;20097;-56
2023/11/13 10:51:03;;;;;;;5.82;4.43;;;;;;;;;;4982635;28;20063;-55
2023/11/13 10:53:31;;;;;;;6.82;4.13;;;;;;;;;;4983170;28;20034;-55
2023/11/13 10:55:57;;;;;;;6.55;4.38;;;;;;;;;;4981443;28;20070;-55
2023/11/13 10:58:22;;;;;;;6.47;4.32;;;;;;;;;;4983332;28;20116;-56
2023/11/13 11:00:47;;;;;;;6.30;4.65;;;;;;;;;;4958164;28;20086;-56
2023/11/13 11:03:17;;;;;;;6.47;4.25;;;;;;;;;;4959229;28;20151;-55
2023/11/13 11:05:42;;;;;;;6.55;3.97;;;;;;;;;;4977718;28;20139;-55
2023/11/13 11:08:08;;;;;;;5.90;4.07;;;;;;;;;;4982867;28;20061;-56
2023/11/13 11:10:33;;;;;;;5.47;4.07;;;;;;;;;;4982148;28;20030;-56
2023/11/13 11:13:02;;;;;;;7.18;4.20;;;;;;;;;;4982347;28;20372;-55
2023/11/13 11:15:27;;;;;;;5.32;4.03;;;;;;;;;;4975660;28;20110;-56
2023/11/13 11:17:56;;;;;;;4.80;3.43;;;;;;;;;;4982735;28;20094;-55
2023/11/13 11:20:34;;;;;;;7.65;3.80;;;;;;;;;;4972962;28;20377;-55
2023/11/13 11:23:00;;;;;;;5.97;3.92;;;;;;;;;;4969680;28;20117;-56
2023/11/13 11:25:29;;;;;;;5.25;4.25;;;;;;;;;;4981043;28;20483;-56
2023/11/13 11:27:54;;;;;;;7.53;4.20;;;;;;;;;;4977234;28;20034;-55
2023/11/13 11:30:22;;;;;;;4.65;3.47;;;;;;;;;;4982562;28;20049;-56
2023/11/13 11:32:51;;;;;;;5.88;3.70;;;;;;;;;;4979183;28;20042;-56
2023/11/13 11:35:16;;;;;;;5.70;3.80;;;;;;;;;;4979012;28;20034;-54
2023/11/13 11:37:41;;;;;;;4.80;3.50;;;;;;;;;;4978596;28;20334;-56
2023/11/13 11:40:12;;;;;;;5.90;3.67;;;;;;;;;;4981042;28;20364;-55
2023/11/13 11:42:38;;;;;;;4.95;3.70;;;;;;;;;;4977020;28;20305;-55
2023/11/13 11:45:06;;;;;;;6.15;3.85;;;;;;;;;;4971192;28;20509;-55
2023/11/13 11:47:36;;;;;;;5.45;3.67;;;;;;;;;;4981954;28;20137;-56
2023/11/13 11:50:03;;;;;;;5.50;3.40;;;;;;;;;;4982523;28;20070;-56
2023/11/13 11:52:41;;;;;;;5.43;3.60;;;;;;;;;;4980756;28;20038;-55
2023/11/13 11:55:12;;;;;;;5.20;3.60;;;;;;;;;;4978711;28;20154;-55
2023/11/13 11:57:37;;;;;;;4.38;3.40;;;;;;;;;;4982718;28;20051;-56
2023/11/13 12:00:04;;;;;;;4.13;3.15;;;;;;;;;;4979571;28;20493;-56
2023/11/13 12:02:30;;;;;;;5.30;3.33;;;;;;;;;;4975691;28;20046;-57
2023/11/13 12:05:00;;;;;;;4.47;3.20;;;;;;;;;;4975441;28;20039;-58
2023/11/13 12:07:25;;;;;;;5.85;3.45;;;;;;;;;;4977453;28;20065;-57
2023/11/13 12:09:50;;;;;;;5.13;3.57;;;;;;;;;;4980061;28;20092;-59
2023/11/13 12:12:19;;;;;;;4.45;3.35;;;;;;;;;;4978865;28;20933;-57
2023/11/13 12:14:44;;;;;;;5.03;3.00;;;;;;;;;;4973603;28;20550;-56
2023/11/13 12:17:10;;;;;;;4.70;3.30;;;;;;;;;;4979410;28;20042;-56
2023/11/13 12:19:36;;;;;;;4.32;3.35;;;;;;;;;;4974665;28;20470;-56
2023/11/13 12:22:03;;;;;;;4.35;2.92;;;;;;;;;;4970893;28;20047;-56
2023/11/13 12:24:28;;;;;;;5.57;3.85;;;;;;;;;;4973769;28;20042;-56
2023/11/13 12:26:56;;;;;;;4.53;3.03;;;;;;;;;;4970529;28;20117;-56
2023/11/13 12:29:22;;;;;;;5.38;3.58;;;;;;;;;;4973391;28;20511;-57
2023/11/13 12:31:50;;;;;;;4.85;3.15;;;;;;;;;;4979278;28;20069;-58
2023/11/13 12:34:16;;;;;;;4.55;3.17;;;;;;;;;;4979136;28;20100;-57
2023/11/13 12:36:48;;;;;;;5.15;3.30;;;;;;;;;;4975958;28;20468;-58
2023/11/13 12:39:17;;;;;;;4.85;3.33;;;;;;;;;;4978059;28;20132;-56
2023/11/13 12:41:46;;;;;;;3.53;2.90;;;;;;;;;;4976409;28;20186;-56
2023/11/13 12:44:12;;;;;;;4.50;3.17;;;;;;;;;;4975675;28;20126;-56
2023/11/13 12:46:42;;;;;;;3.33;3.03;;;;;;;;;;4971966;28;20047;-56
2023/11/13 12:49:11;;;;;;;4.20;3.40;;;;;;;;;;4968182;28;20183;-56
2023/11/13 12:51:38;;;;;;;4.05;2.80;;;;;;;;;;4965848;28;20132;-56
2023/11/13 12:54:04;;;;;;;4.03;2.85;;;;;;;;;;4976097;28;20042;-56
2023/11/13 12:56:29;;;;;;;3.72;2.92;;;;;;;;;;4975838;28;20047;-56
2023/11/13 12:58:55;;;;;;;4.97;2.92;;;;;;;;;;4980824;28;20046;-56
2023/11/13 13:01:21;;;;;;;4.30;2.70;;;;;;;;;;4991112;28;20105;-55
2023/11/13 13:03:50;;;;;;;4.43;2.67;;;;;;;;;;4980080;28;20039;-56
2023/11/13 13:06:15;;;;;;;3.88;2.50;;;;;;;;;;4973425;28;20045;-55
2023/11/13 13:08:41;;;;;;;3.20;2.35;;;;;;;;;;4969698;28;20038;-57
2023/11/13 13:11:07;;;;;;;3.35;2.55;;;;;;;;;;4968512;28;20043;-56
2023/11/13 13:13:32;;;;;;;4.07;2.90;;;;;;;;;;4972178;28;20101;-56
2023/11/13 13:15:57;;;;;;;3.35;2.67;;;;;;;;;;4991402;28;20488;-55
2023/11/13 13:18:24;;;;;;;3.88;2.35;;;;;;;;;;4970007;28;20543;-56
2023/11/13 13:20:49;;;;;;;3.75;2.60;;;;;;;;;;4971504;28;20633;-57
2023/11/13 13:23:14;;;;;;;3.45;2.72;;;;;;;;;;4976858;28;20108;-55
2023/11/13 13:25:40;;;;;;;3.88;2.63;;;;;;;;;;4953639;28;20035;-56
2023/11/13 13:28:06;;;;;;;3.53;2.80;;;;;;;;;;4975888;28;20417;-56
2023/11/13 13:30:32;;;;;;;3.72;2.88;;;;;;;;;;4976589;28;20714;-56
2023/11/13 13:32:57;;;;;;;3.42;2.65;;;;;;;;;;4981567;28;20046;-57
2023/11/13 13:35:23;;;;;;;4.55;2.50;;;;;;;;;;4976704;28;20458;-56
2023/11/13 13:37:48;;;;;;;4.40;3.05;;;;;;;;;;4967090;28;20038;-56
2023/11/13 13:40:14;;;;;;;5.80;2.70;;;;;;;;;;4975965;28;20046;-56
2023/11/13 13:42:40;;;;;;;5.60;2.72;;;;;;;;;;4966978;28;20043;-57
2023/11/13 13:45:09;;;;;;;7.03;2.53;;;;;;;;;;4981970;28;20097;-57
2023/11/13 13:47:34;;;;;;;3.65;2.50;;;;;;;;;;4976609;28;20034;-57
2023/11/13 13:50:00;;;;;;;5.00;2.30;;;;;;;;;;4980780;28;20039;-57
2023/11/13 13:52:29;;;;;;;4.78;2.75;;;;;;;;;;4982469;28;20424;-57
2023/11/13 13:54:58;;;;;;;;;;;;;;;;;;4981570;28;20050;-56
2023/11/13 13:57:23;;;;;;;3.95;1.77;;;;;;;;;;4982147;28;19957;-57
2023/11/13 13:59:49;;;;;;;4.60;1.83;;;;;;;;;;4985823;28;20019;-56
2023/11/13 14:02:14;;;;;;;6.87;1.57;;;;;;;;;;4985307;28;20591;-56
2023/11/13 14:04:39;;;;;;;1.67;0.97;;;;;;;;;;4984218;28;20273;-56
2023/11/13 14:07:06;;;;;;;2.63;1.20;;;;;;;;;;4979892;28;20827;-55
2023/11/13 14:09:31;;;;;;;2.88;1.00;;;;;;;;;;4966460;28;20281;-56
2023/11/13 14:11:57;;;;;;;2.63;1.10;;;;;;;;;;4973357;28;20076;-56
2023/11/13 14:14:22;;;;;;;4.00;0.90;;;;;;;;;;4985517;28;20508;-56
2023/11/13 14:16:50;;;;;;;3.05;0.85;;;;;;;;;;4985972;28;20026;-57
2023/11/13 14:19:15;;;;;;;3.63;1.10;;;;;;;;;;4985357;28;20030;-56
2023/11/13 14:21:43;;;;;;;2.05;0.88;;;;;;;;;;4986221;28;20030;-56
2023/11/13 14:24:09;;;;;;;5.00;1.30;;;;;;;;;;4985416;28;20030;-57
2023/11/13 14:26:35;;;;;;;2.70;1.08;;;;;;;;;;4984560;28;20055;-56
2023/11/13 14:29:00;;;;;;;2.50;0.97;;;;;;;;;;4985181;28;20022;-56
2023/11/13 14:31:25;;;;;;;4.70;1.10;;;;;;;;;;4985370;28;20265;-56
2023/11/13 14:33:50;;;;;;;5.63;1.27;;;;;;;;;;4985132;28;20613;-56
2023/11/13 14:36:17;;;;;;;5.55;1.30;;;;;;;;;;4985532;28;20339;-55